• Join FlightAware (Why Join?)
  • Login
  • US Flag 
08:09PM EST


 

Airport Tracker/Info


-or-


 

Live Flight TrackerFlight Track Log ✈ EGF4260 ✈ 05-May-2013 ✈ KORD - KCVG

Flight Track Log - Related Links

Times and Time Zones

All times are in EDT time to prevent confusion due to time zone crossing. See the EGF4260 flight status page for this flight to view local times or setup timezone preferences in your user account.

Time Position Orientation Groundspeed Altitude Reporting Facility
EDT Latitude Longitude Course Direction KTS MPH feet Rate Location/Type
04:35PM 41.9500 -87.8333 173° South 206 237 4,100  Level Chicago TRACON
04:36PM 41.8226 -87.7208 160° South  Level Estimated
04:36PM 41.8833 -87.8000 160° South 254 292 5,900  Level Chicago TRACON
04:37PM 41.7430 -87.6283 157° South  Level Estimated
04:38PM 41.6633 -87.5359 156° South  Level Estimated
04:38PM 41.7986 -87.8353 197° South 264 304 8,400  Level Chicago Center
04:39PM 41.5594 -87.5591 189° South  Level FlightAware Approximate
04:39PM 41.7119 -87.8136 169° South 268 308 11,300  Level Chicago Center
04:40PM 41.4813 -87.4645 169° South  Level Estimated
04:40PM 41.6450 -87.7528 146° Southeast 288 331 12,600  Level Chicago Center
04:41PM 41.4127 -87.3817 173° South  Level Estimated
04:41PM 41.5669 -87.6886 148° Southeast 324 373 14,000  Level Chicago Center
04:42PM 41.4867 -87.6208 148° Southeast 337 388 15,500 1,500 Climbing Chicago Center
04:43PM 41.3992 -87.5647 154° Southeast 353 406 17,100 1,440 Climbing Chicago Center
04:44PM 41.3011 -87.5486 173° South 356 410 18,500 1,560 Climbing Chicago Center
04:45PM 41.1836 -87.5183 169° South 366 421 20,400 1,620 Climbing Chicago Center
04:46PM 41.1008 -87.4483 147° Southeast 356 410 21,900 1,200 Climbing Chicago Center
04:47PM 41.0167 -87.3736 146° Southeast 363 418 23,000 480 Climbing Chicago Center
04:48PM 40.9253 -87.2967 148° Southeast 386 444 23,000  Level Chicago Center
04:49PM 40.8289 -87.2136 147° Southeast 410 472 23,000  Level Chicago Center
04:50PM 40.7317 -87.1319 148° Southeast 414 476 23,000  Level Chicago Center
04:51PM 40.6225 -87.0378 147° Southeast 418 481 23,000  Level Chicago Center
04:52PM 40.5253 -86.9575 148° Southeast 415 478 23,000  Level Chicago Center
04:53PM 40.4303 -86.8769 147° Southeast 410 472 23,000  Level Chicago Center
04:54PM 40.3169 -86.7819 147° Southeast 405 466 23,000  Level Chicago Center
04:55PM 40.2236 -86.7042 148° Southeast 401 461 23,000  Level Chicago Center
04:56PM 40.1297 -86.6269 148° Southeast 400 460 23,000  Level Chicago Center
04:57PM 40.0717 -86.5800 148° Southeast 400 460 23,000  Level Indianapolis Center
04:58PM 39.9792 -86.5019 147° Southeast 398 458 23,000 -360 Level Indianapolis Center
04:59PM 39.8664 -86.4103 148° Southeast 399 459 22,300 -1,260 Descending Indianapolis Center
05:00PM 39.8167 -86.3500 137° Southeast 397 457 20,800 -2,100 Descending Indianapolis TRACON
05:01PM 39.7667 -86.2000 113° Southeast 379 436 18,500 -1,980 Descending Indianapolis TRACON
05:02PM 39.7167 -86.0833 119° Southeast 360 414 16,700 -1,860 Descending Indianapolis TRACON
05:02PM 39.7094 -86.0536 108° East 366 421 16,200 -1,500 Descending Indianapolis Center
05:03PM 39.6700 -85.9353 113° Southeast 359 413 14,800 -1,320 Descending Indianapolis Center
05:05PM 39.6000 -85.7333 114° Southeast 343 395 12,600 -1,260 Descending Indianapolis TRACON
05:05PM 39.5939 -85.7086 108° East 343 395 12,300 -960 Descending Indianapolis Center
05:06PM 39.5569 -85.5972 113° Southeast 339 390 11,300 -660 Descending Indianapolis Center
05:07PM 39.5200 -85.4892 114° Southeast 330 380 11,000 -180 Descending Indianapolis Center
05:08PM 39.4575 -85.3728 125° Southeast 328 377 11,000 -60 Level Indianapolis Center
05:09PM 39.4081 -85.2744 123° Southeast 330 380 10,900 -540 Descending Indianapolis Center
05:10PM 39.3922 -85.1747 102° East 282 325 9,900 -1,020 Descending Indianapolis Center
05:11PM 39.3772 -85.0892 103° East 253 291 8,900 -1,080 Descending Indianapolis Center
05:12PM 39.3650 -85.0028 100° East 246 283 7,700 -1,200 Descending Indianapolis Center
05:13PM 39.3508 -84.9206 103° East 239 275 6,500 -1,260 Descending Indianapolis Center
05:14PM 39.3342 -84.8297 103° East 235 270 5,100 -1,200 Descending Indianapolis Center
05:15PM 39.3167 -84.7333 103° East 227 261 4,100 -1,020 Descending Cincinnati TRACON
05:16PM 39.2667 -84.6833 142° Southeast 219 252 3,100 -600 Descending Cincinnati TRACON
05:17PM 39.2167 -84.6667 166° South 208 239 3,000 -120 Descending Cincinnati TRACON